Time;durP1;ratioP1;P1;durP2;ratioP2;P2;SDS_P1;SDS_P2;PMS_P1;PMS_P2;Temp;Humidity;BMP_temperature;BMP_pressure;BME280_temperature;BME280_humidity;BME280_pressure;Samples;Min_cycle;Max_cycle;Signal;HPM_P1;HPM_P2
2022/10/03 00:01:04;;;;;;;17.60;3.80;;;10.10;99.90;;;;;;5027394;28;20115;-67
2022/10/03 00:03:43;;;;;;;11.63;3.40;;;10.10;99.90;;;;;;5018896;28;20045;-67
2022/10/03 00:07:01;;;;;;;13.77;3.33;;;10.10;99.90;;;;;;5032115;28;20037;-67
2022/10/03 00:09:39;;;;;;;18.08;3.83;;;10.00;99.90;;;;;;4966548;28;20042;-67
2022/10/03 00:12:08;;;;;;;17.15;4.07;;;9.90;99.90;;;;;;4944668;29;20071;-65
2022/10/03 00:14:49;;;;;;;13.05;3.55;;;9.90;99.90;;;;;;4985870;28;20106;-65
2022/10/03 00:17:53;;;;;;;20.73;3.47;;;9.90;99.90;;;;;;5032183;28;20056;-65
2022/10/03 00:20:18;;;;;;;15.32;3.40;;;9.90;99.90;;;;;;5021082;28;20073;-67
2022/10/03 00:23:09;;;;;;;19.23;3.97;;;10.00;99.90;;;;;;5031751;28;20029;-65
2022/10/03 00:26:25;;;;;;;22.40;4.18;;;10.00;99.90;;;;;;5025712;28;20669;-65
2022/10/03 00:28:54;;;;;;;17.17;3.20;;;10.00;99.90;;;;;;5024241;28;20052;-66
2022/10/03 00:31:24;;;;;;;19.98;3.63;;;10.00;99.90;;;;;;5013929;28;20038;-67
2022/10/03 00:34:13;;;;;;;15.02;3.50;;;10.00;99.90;;;;;;5031904;28;20116;-67
2022/10/03 00:36:57;;;;;;;15.45;3.40;;;10.00;99.90;;;;;;5024190;28;20060;-67
2022/10/03 00:39:43;;;;;;;16.27;3.30;;;9.90;99.90;;;;;;5029450;28;20037;-67
2022/10/03 00:42:30;;;;;;;17.48;3.60;;;9.90;99.90;;;;;;5027740;28;20037;-65
2022/10/03 00:45:33;;;;;;;14.15;2.97;;;9.80;99.90;;;;;;5022616;28;20048;-65
2022/10/03 00:48:20;;;;;;;15.75;3.72;;;9.80;99.90;;;;;;5031459;28;20634;-65
2022/10/03 00:51:20;;;;;;;18.77;3.55;;;9.80;99.90;;;;;;5024946;28;20129;-65
2022/10/03 00:53:49;;;;;;;19.08;3.17;;;9.70;99.90;;;;;;5007997;28;20124;-67
2022/10/03 00:56:43;;;;;;;18.25;3.55;;;9.70;99.90;;;;;;5031558;28;20076;-67
2022/10/03 00:59:08;;;;;;;13.63;3.70;;;9.60;99.90;;;;;;5022758;28;20052;-67
2022/10/03 01:01:43;;;;;;;14.63;3.05;;;9.60;99.90;;;;;;5017849;28;20029;-67
2022/10/03 01:04:36;;;;;;;13.10;3.40;;;9.70;99.90;;;;;;5031204;28;20396;-67
2022/10/03 01:07:23;;;;;;;16.52;3.67;;;9.60;99.90;;;;;;5031349;28;20594;-66
2022/10/03 01:10:15;;;;;;;14.90;3.30;;;9.60;99.90;;;;;;5020131;28;20038;-67
2022/10/03 01:12:58;;;;;;;13.85;3.60;;;9.60;99.90;;;;;;5023025;28;20041;-67
2022/10/03 01:15:30;;;;;;;17.98;3.50;;;9.60;99.90;;;;;;5027146;28;20164;-67
2022/10/03 01:18:01;;;;;;;;;;;9.60;99.90;;;;;;5025023;28;20045;-68
2022/10/03 01:20:45;;;;;;;12.98;3.22;;;9.50;99.90;;;;;;5031011;28;19928;-67
2022/10/03 01:23:40;;;;;;;16.23;3.25;;;9.50;99.90;;;;;;5030927;28;20107;-67
2022/10/03 01:26:36;;;;;;;18.30;3.58;;;9.50;99.90;;;;;;5007741;28;20049;-68
2022/10/03 01:32:39;;;;;;;17.27;3.63;;;9.50;99.90;;;;;;5008097;28;20049;-65
2022/10/03 01:35:27;;;;;;;11.23;3.05;;;9.50;99.90;;;;;;5019324;28;20510;-66
2022/10/03 01:38:02;;;;;;;15.55;3.63;;;9.50;99.90;;;;;;5030592;28;20041;-67
2022/10/03 01:40:33;;;;;;;14.65;3.10;;;9.50;99.90;;;;;;5026762;28;20061;-67
2022/10/03 01:43:12;;;;;;;19.40;3.40;;;9.50;99.90;;;;;;5026578;28;20044;-67
2022/10/03 01:45:59;;;;;;;14.65;3.30;;;9.50;99.90;;;;;;5012750;28;20045;-67
2022/10/03 01:48:56;;;;;;;13.95;2.92;;;9.40;99.90;;;;;;5011307;28;20088;-63
2022/10/03 01:51:32;;;;;;;16.35;3.42;;;9.40;99.90;;;;;;4973457;28;20061;-68
2022/10/03 01:54:28;;;;;;;18.85;3.20;;;9.40;99.90;;;;;;5030678;28;20049;-68
2022/10/03 01:57:11;;;;;;;13.38;3.13;;;9.30;99.90;;;;;;5030688;28;20045;-67
2022/10/03 02:00:14;;;;;;;13.48;3.25;;;9.40;99.90;;;;;;5024557;28;20034;-65
2022/10/03 02:03:12;;;;;;;15.70;3.60;;;9.40;99.90;;;;;;5029055;28;20036;-67
2022/10/03 02:06:23;;;;;;;16.05;3.42;;;9.40;99.90;;;;;;5023894;28;20529;-68
2022/10/03 02:09:09;;;;;;;22.95;3.63;;;9.40;99.90;;;;;;4993202;28;20511;-67
2022/10/03 02:12:17;;;;;;;16.02;3.55;;;9.40;99.90;;;;;;5030073;28;20038;-67
2022/10/03 02:15:10;;;;;;;14.93;3.22;;;9.40;99.90;;;;;;4990052;28;20152;-67
2022/10/03 02:18:01;;;;;;;19.13;2.75;;;9.40;99.90;;;;;;5024870;28;20076;-66
2022/10/03 02:20:44;;;;;;;16.27;3.22;;;9.40;99.90;;;;;;5013920;28;20049;-67
2022/10/03 02:23:30;;;;;;;14.52;2.88;;;9.30;99.90;;;;;;5016855;28;20033;-64
2022/10/03 02:26:01;;;;;;;16.33;3.13;;;9.30;99.90;;;;;;5024579;28;20055;-67
2022/10/03 02:28:30;;;;;;;;;;;9.20;99.90;;;;;;5030400;28;20047;-67
2022/10/03 02:31:14;;;;;;;15.82;3.10;;;9.20;99.90;;;;;;5030419;28;19924;-68
2022/10/03 02:34:06;;;;;;;12.73;2.65;;;9.20;99.90;;;;;;5001052;28;20052;-67
2022/10/03 02:36:31;;;;;;;;;;;9.20;99.90;;;;;;4992862;28;20124;-68
2022/10/03 02:39:31;;;;;;;15.57;3.17;;;9.40;99.90;;;;;;5023395;28;20608;-68
2022/10/03 02:42:24;;;;;;;15.30;3.53;;;9.30;99.90;;;;;;5018337;28;20044;-67
2022/10/03 02:45:11;;;;;;;18.33;3.22;;;9.30;99.90;;;;;;5029975;28;20034;-67
2022/10/03 02:47:54;;;;;;;20.30;3.80;;;9.40;99.90;;;;;;5021275;28;20044;-67
2022/10/03 02:50:42;;;;;;;19.70;3.67;;;9.30;99.90;;;;;;5009421;28;20160;-66
2022/10/03 02:53:22;;;;;;;14.25;2.92;;;9.30;99.90;;;;;;5032227;28;20597;-67
2022/10/03 02:56:15;;;;;;;14.48;3.30;;;9.30;99.90;;;;;;5010800;28;20049;-67
2022/10/03 02:59:13;;;;;;;16.45;3.05;;;9.30;99.90;;;;;;5008373;28;20500;-67
2022/10/03 03:01:58;;;;;;;14.32;3.10;;;9.40;99.90;;;;;;5033314;28;20423;-66
2022/10/03 03:05:00;;;;;;;17.20;2.85;;;9.40;99.90;;;;;;5029223;28;20072;-67
2022/10/03 03:07:34;;;;;;;17.20;3.30;;;9.40;99.90;;;;;;5027679;28;20526;-67
2022/10/03 03:10:21;;;;;;;19.88;3.60;;;9.40;99.90;;;;;;5033522;28;20570;-66
2022/10/03 03:12:59;;;;;;;16.85;3.50;;;9.40;99.90;;;;;;5025657;28;20108;-63
2022/10/03 03:15:46;;;;;;;20.67;4.45;;;9.40;99.90;;;;;;5028038;28;20038;-67
2022/10/03 03:18:45;;;;;;;14.50;3.65;;;9.40;99.90;;;;;;5032844;28;20041;-66
2022/10/03 03:21:25;;;;;;;17.92;3.40;;;9.40;99.90;;;;;;5029527;28;20112;-63
2022/10/03 03:24:15;;;;;;;16.33;2.97;;;9.30;99.90;;;;;;5023682;28;20033;-67
2022/10/03 03:27:18;;;;;;;16.80;3.33;;;9.30;99.90;;;;;;5023794;28;20076;-66
2022/10/03 03:29:54;;;;;;;15.98;3.60;;;9.40;99.90;;;;;;5027686;28;20040;-67
2022/10/03 03:32:43;;;;;;;15.07;3.15;;;9.30;99.90;;;;;;5029283;28;20081;-66
2022/10/03 03:35:19;;;;;;;14.25;3.00;;;9.20;99.90;;;;;;5031484;28;20519;-66
2022/10/03 03:38:21;;;;;;;17.52;3.55;;;9.10;99.90;;;;;;5032433;28;20053;-67
2022/10/03 03:41:01;;;;;;;13.32;3.20;;;9.10;99.90;;;;;;5010397;28;20038;-66
2022/10/03 03:43:51;;;;;;;13.65;4.50;;;9.00;99.90;;;;;;5030727;28;20511;-67
2022/10/03 03:46:34;;;;;;;16.80;3.88;;;9.00;99.90;;;;;;5026286;28;20117;-67
2022/10/03 03:49:41;;;;;;;13.00;3.22;;;9.00;99.90;;;;;;5032351;28;20037;-67
2022/10/03 03:52:25;;;;;;;14.23;3.17;;;9.10;99.90;;;;;;5013043;28;20045;-67
2022/10/03 03:55:18;;;;;;;14.68;3.50;;;9.10;99.90;;;;;;5012268;28;20099;-66
2022/10/03 03:58:12;;;;;;;19.10;3.47;;;9.10;99.90;;;;;;5019612;28;20053;-68
2022/10/03 04:00:41;;;;;;;14.00;3.25;;;9.00;99.90;;;;;;5032460;28;20103;-67
2022/10/03 04:03:17;;;;;;;18.50;3.60;;;8.90;99.90;;;;;;5008248;28;20052;-67
2022/10/03 04:05:54;;;;;;;18.13;3.28;;;8.90;99.90;;;;;;5028603;28;20080;-65
2022/10/03 04:08:59;;;;;;;30.60;3.67;;;8.90;99.90;;;;;;5032464;28;20099;-66
2022/10/03 04:12:07;;;;;;;16.67;3.25;;;8.90;99.90;;;;;;5023179;28;20132;-65
2022/10/03 04:14:52;;;;;;;17.83;2.95;;;8.90;99.90;;;;;;5031429;28;20076;-66
2022/10/03 04:20:43;;;;;;;28.02;3.00;;;8.80;99.90;;;;;;5025719;28;20412;-67
2022/10/03 04:23:42;;;;;;;21.45;3.53;;;8.80;99.90;;;;;;5027547;28;20187;-68
2022/10/03 04:26:32;;;;;;;15.77;3.33;;;8.80;99.90;;;;;;5007718;28;20045;-65
2022/10/03 04:29:28;;;;;;;11.93;3.47;;;8.90;99.90;;;;;;5022402;28;20045;-66
2022/10/03 04:31:56;;;;;;;73.40;4.43;;;8.90;99.90;;;;;;5025790;28;20038;-67
2022/10/03 04:34:45;;;;;;;97.90;4.50;;;8.80;99.90;;;;;;5032027;28;20042;-66
2022/10/03 04:37:36;;;;;;;57.70;3.83;;;8.60;99.90;;;;;;5022205;28;20069;-63
2022/10/03 04:40:40;;;;;;;90.05;4.40;;;8.50;99.90;;;;;;5026306;28;20045;-65
2022/10/03 04:43:12;;;;;;;162.65;5.50;;;8.50;99.90;;;;;;5030663;28;20041;-65
2022/10/03 04:46:16;;;;;;;122.00;4.65;;;8.30;99.90;;;;;;5026510;28;20041;-66
2022/10/03 04:49:04;;;;;;;77.45;3.70;;;8.20;99.90;;;;;;5021093;28;20041;-66
2022/10/03 04:51:36;;;;;;;28.75;2.92;;;8.10;99.90;;;;;;5031282;28;20392;-66
2022/10/03 04:54:18;;;;;;;103.75;4.88;;;8.10;99.90;;;;;;5004564;28;20041;-67
2022/10/03 04:56:55;;;;;;;92.68;4.22;;;8.10;99.90;;;;;;5031240;28;20036;-67
2022/10/03 04:59:26;;;;;;;42.03;3.47;;;8.00;99.90;;;;;;5029809;28;20088;-63
2022/10/03 05:01:54;;;;;;;;;;;8.00;99.90;;;;;;5015807;28;20056;-67
2022/10/03 05:04:26;;;;;;;160.35;7.40;;;8.00;99.90;;;;;;5010878;28;20465;-67
2022/10/03 05:06:51;;;;;;;;;;;8.00;99.90;;;;;;5031597;28;20123;-67
2022/10/03 05:09:23;;;;;;;262.88;7.25;;;7.90;99.90;;;;;;5003780;28;19917;-67
2022/10/03 05:11:55;;;;;;;184.82;5.07;;;7.80;99.90;;;;;;5018837;28;20517;-67
2022/10/03 05:14:36;;;;;;;194.07;5.45;;;7.80;99.90;;;;;;5031034;28;20037;-67
2022/10/03 05:17:24;;;;;;;98.72;3.70;;;7.60;99.90;;;;;;5012644;28;20124;-67
2022/10/03 05:20:23;;;;;;;46.80;3.00;;;7.60;99.90;;;;;;5015475;28;20052;-67
2022/10/03 05:23:22;;;;;;;81.85;4.30;;;7.60;99.90;;;;;;5027814;28;20041;-64
2022/10/03 05:26:00;;;;;;;288.35;8.63;;;7.50;99.90;;;;;;5006835;28;20432;-64
2022/10/03 05:28:49;;;;;;;338.52;9.48;;;7.50;99.90;;;;;;5009344;28;20069;-67
2022/10/03 05:31:20;;;;;;;115.35;3.60;;;7.50;99.90;;;;;;5010436;28;20045;-67
2022/10/03 05:34:11;;;;;;;108.15;3.67;;;7.40;99.90;;;;;;5012077;28;20504;-66
2022/10/03 05:37:25;;;;;;;62.78;3.47;;;7.40;99.90;;;;;;4998161;28;20547;-67
2022/10/03 05:40:12;;;;;;;184.30;6.53;;;7.40;99.90;;;;;;5006488;28;20042;-67
2022/10/03 05:42:52;;;;;;;219.70;8.20;;;7.40;99.90;;;;;;5023052;28;20396;-65
2022/10/03 05:45:22;;;;;;;350.23;13.13;;;7.40;99.90;;;;;;5027448;28;20034;-67
2022/10/03 05:48:01;;;;;;;302.40;7.90;;;7.40;99.90;;;;;;5013235;28;20045;-67
2022/10/03 05:50:35;;;;;;;210.57;6.15;;;7.30;99.90;;;;;;5027914;28;20045;-66
2022/10/03 05:53:07;;;;;;;169.63;5.50;;;7.30;99.90;;;;;;5027269;28;20050;-67
2022/10/03 05:55:52;;;;;;;225.30;8.35;;;7.30;99.90;;;;;;5030301;28;20045;-68
2022/10/03 05:58:21;;;;;;;281.02;7.70;;;7.30;99.90;;;;;;5026927;28;20049;-65
2022/10/03 06:01:10;;;;;;;326.08;9.23;;;7.30;99.90;;;;;;5022058;28;20402;-67
2022/10/03 06:04:06;;;;;;;124.82;5.30;;;7.30;99.90;;;;;;5020426;28;20044;-66
2022/10/03 06:06:44;;;;;;;113.68;4.75;;;7.40;99.90;;;;;;5026740;28;20064;-66
2022/10/03 06:09:47;;;;;;;160.38;6.00;;;7.40;99.90;;;;;;5009488;28;20045;-67
2022/10/03 06:12:31;;;;;;;159.48;5.68;;;7.50;99.90;;;;;;5020898;28;20048;-64
2022/10/03 06:15:25;;;;;;;145.98;5.50;;;7.40;99.90;;;;;;5021736;28;20041;-66
2022/10/03 06:18:00;;;;;;;15.70;2.60;;;7.30;99.90;;;;;;5024794;28;20047;-65
2022/10/03 06:20:46;;;;;;;22.63;2.55;;;7.40;99.90;;;;;;5029966;28;20124;-66
2022/10/03 06:23:46;;;;;;;12.98;2.90;;;7.40;99.90;;;;;;5012632;28;20620;-67
2022/10/03 06:26:48;;;;;;;19.92;3.10;;;7.60;99.90;;;;;;5025370;28;20052;-67
2022/10/03 06:29:14;;;;;;;;;;;7.70;99.90;;;;;;4946264;28;20500;-67
2022/10/03 06:32:17;;;;;;;24.55;3.00;;;7.80;99.90;;;;;;5034142;28;20384;-66
2022/10/03 06:35:08;;;;;;;8.05;3.60;;;7.80;99.90;;;;;;5030900;28;20033;-67
2022/10/03 06:38:13;;;;;;;7.13;2.90;;;7.80;99.90;;;;;;5033992;28;20037;-67
2022/10/03 06:41:06;;;;;;;13.73;3.05;;;7.90;99.90;;;;;;5033679;28;20044;-66
2022/10/03 06:43:34;;;;;;;8.40;3.60;;;8.00;99.90;;;;;;5023822;28;20222;-65
2022/10/03 06:46:25;;;;;;;8.20;3.72;;;8.10;99.90;;;;;;5016042;28;20048;-66
2022/10/03 06:49:26;;;;;;;12.35;4.45;;;8.30;99.90;;;;;;5029475;28;20044;-66
2022/10/03 06:52:17;;;;;;;13.27;3.95;;;8.50;99.90;;;;;;5022436;28;20486;-66
2022/10/03 06:55:29;;;;;;;9.10;3.88;;;8.70;99.90;;;;;;5024213;28;20403;-67
2022/10/03 06:58:32;;;;;;;10.23;4.05;;;8.80;99.90;;;;;;5032232;28;20568;-67
2022/10/03 07:01:49;;;;;;;9.00;4.07;;;8.90;99.90;;;;;;5015101;28;20060;-66
2022/10/03 07:04:52;;;;;;;17.05;4.90;;;9.10;99.90;;;;;;4964505;28;20177;-66
2022/10/03 07:07:36;;;;;;;13.77;4.38;;;9.30;99.90;;;;;;4965700;28;20664;-66
2022/10/03 07:10:34;;;;;;;16.90;4.90;;;9.50;99.90;;;;;;5025550;28;20087;-67
2022/10/03 07:13:18;;;;;;;13.43;4.43;;;9.80;99.90;;;;;;5033281;28;20072;-67
2022/10/03 07:16:10;;;;;;;22.42;5.38;;;9.90;99.90;;;;;;5026734;28;20068;-65
2022/10/03 07:19:14;;;;;;;26.92;5.80;;;10.10;99.90;;;;;;5032327;28;20620;-65
2022/10/03 07:22:18;;;;;;;14.55;5.15;;;10.20;99.90;;;;;;5014134;28;20131;-64
2022/10/03 07:25:08;;;;;;;16.55;5.78;;;10.40;99.90;;;;;;5023408;28;20062;-65
2022/10/03 07:27:37;;;;;;;15.00;5.00;;;10.50;99.90;;;;;;5004602;28;20076;-65
2022/10/03 07:30:19;;;;;;;15.52;5.30;;;10.60;99.90;;;;;;5009744;28;20049;-65
2022/10/03 07:32:54;;;;;;;19.60;5.45;;;10.70;99.90;;;;;;5005967;28;20041;-65
2022/10/03 07:39:08;;;;;;;15.38;5.60;;;10.90;99.90;;;;;;5017911;28;20045;-64
2022/10/03 07:41:55;;;;;;;16.40;5.63;;;10.90;99.90;;;;;;5031559;28;20508;-64
2022/10/03 07:44:55;;;;;;;19.77;5.60;;;11.10;99.90;;;;;;5032845;28;20045;-65
2022/10/03 07:47:51;;;;;;;19.95;5.32;;;11.20;99.90;;;;;;5005785;28;20045;-65
2022/10/03 07:50:57;;;;;;;16.75;5.68;;;11.30;99.90;;;;;;5031064;28;20041;-67
2022/10/03 07:53:50;;;;;;;21.75;5.82;;;11.40;99.90;;;;;;4970222;28;20416;-67
2022/10/03 07:56:25;;;;;;;14.68;4.70;;;11.50;99.90;;;;;;4963617;28;20599;-67
2022/10/03 07:59:06;;;;;;;13.20;4.57;;;11.70;99.90;;;;;;5010256;28;20454;-66
2022/10/03 08:01:53;;;;;;;19.42;5.45;;;11.70;99.90;;;;;;5025358;28;20040;-66
2022/10/03 08:04:37;;;;;;;16.75;4.75;;;11.80;99.90;;;;;;5022459;28;20684;-67
2022/10/03 08:07:25;;;;;;;21.80;5.03;;;11.90;99.90;;;;;;5028944;28;20034;-66
2022/10/03 08:09:54;;;;;;;16.58;4.90;;;12.00;99.90;;;;;;5025756;28;20087;-66
2022/10/03 08:12:30;;;;;;;17.75;4.55;;;12.10;99.90;;;;;;5024730;28;20045;-67
2022/10/03 08:15:19;;;;;;;16.80;4.50;;;12.20;99.90;;;;;;5029682;28;20140;-66
2022/10/03 08:17:54;;;;;;;12.60;4.63;;;12.30;99.90;;;;;;5023875;28;20049;-67
2022/10/03 08:20:28;;;;;;;12.63;3.67;;;12.40;99.90;;;;;;5006727;28;20453;-67
2022/10/03 08:23:12;;;;;;;16.67;3.60;;;12.50;99.90;;;;;;5025339;28;20056;-66
2022/10/03 08:25:56;;;;;;;14.80;3.85;;;12.70;99.90;;;;;;5031266;28;20048;-62
2022/10/03 08:28:37;;;;;;;13.52;3.72;;;12.80;99.90;;;;;;5026610;28;20124;-67
2022/10/03 08:31:03;;;;;;;14.40;4.32;;;12.90;99.90;;;;;;5023768;28;20041;-66
2022/10/03 08:34:10;;;;;;;9.80;3.05;;;13.00;99.90;;;;;;5031450;28;20091;-66
2022/10/03 08:36:52;;;;;;;9.25;3.05;;;13.10;99.90;;;;;;5032050;28;20404;-67
2022/10/03 08:39:46;;;;;;;13.18;3.20;;;13.20;99.90;;;;;;5022186;28;20749;-65
2022/10/03 08:43:00;;;;;;;9.00;2.88;;;13.30;99.90;;;;;;5028334;28;20037;-66
2022/10/03 08:45:58;;;;;;;12.30;2.55;;;13.40;99.90;;;;;;4975827;28;20065;-66
2022/10/03 08:48:38;;;;;;;11.27;2.42;;;13.60;99.90;;;;;;4992272;28;20585;-67
2022/10/03 08:51:24;;;;;;;13.52;2.47;;;13.70;99.90;;;;;;5024986;28;20052;-66
2022/10/03 08:54:19;;;;;;;15.85;2.45;;;13.80;99.90;;;;;;5010820;28;20068;-67
2022/10/03 08:57:00;;;;;;;12.60;2.03;;;13.90;99.90;;;;;;5031038;28;20034;-67
2022/10/03 08:59:47;;;;;;;12.35;2.50;;;13.90;99.90;;;;;;5028594;28;20111;-67
2022/10/03 09:02:42;;;;;;;11.35;2.17;;;14.00;99.90;;;;;;5019851;28;20041;-66
2022/10/03 09:05:42;;;;;;;12.57;2.25;;;14.00;99.90;;;;;;5025834;28;20434;-67
2022/10/03 09:08:45;;;;;;;10.52;2.40;;;14.10;99.90;;;;;;5025487;28;20044;-67
2022/10/03 09:11:31;;;;;;;12.73;2.95;;;14.20;99.90;;;;;;5021135;28;20262;-67
2022/10/03 09:14:31;;;;;;;10.63;2.55;;;14.30;99.90;;;;;;5024174;28;20049;-66
2022/10/03 09:17:30;;;;;;;7.10;2.15;;;14.50;99.90;;;;;;5030024;28;20050;-67
2022/10/03 09:20:17;;;;;;;12.25;2.50;;;14.60;99.90;;;;;;5000951;28;20494;-67
2022/10/03 09:23:07;;;;;;;12.30;2.90;;;14.70;99.90;;;;;;5027504;28;20038;-65
2022/10/03 09:25:51;;;;;;;9.82;2.92;;;14.70;99.90;;;;;;5029106;28;20033;-65
2022/10/03 09:28:29;;;;;;;13.90;2.53;;;14.80;99.90;;;;;;5030624;28;20069;-65
2022/10/03 09:31:13;;;;;;;13.10;2.22;;;14.80;99.90;;;;;;5018370;28;20048;-65
2022/10/03 09:34:00;;;;;;;13.75;2.95;;;14.90;99.90;;;;;;5029732;28;20115;-65
2022/10/03 09:36:35;;;;;;;6.55;2.53;;;14.90;99.90;;;;;;5023857;28;20049;-66
2022/10/03 09:39:31;;;;;;;9.60;1.70;;;15.00;99.90;;;;;;5030192;28;20037;-65
2022/10/03 09:42:26;;;;;;;15.85;2.60;;;15.10;99.90;;;;;;5004265;28;20044;-65
2022/10/03 09:45:00;;;;;;;12.75;2.00;;;15.10;99.90;;;;;;5022934;28;20726;-66
2022/10/03 09:47:47;;;;;;;9.43;2.10;;;15.20;99.90;;;;;;5026716;28;20492;-67
2022/10/03 09:50:18;;;;;;;10.75;2.05;;;15.20;99.90;;;;;;5029418;28;20492;-67
2022/10/03 09:53:05;;;;;;;6.70;1.67;;;15.20;99.90;;;;;;5020247;28;20056;-67
2022/10/03 09:56:09;;;;;;;7.70;2.00;;;15.30;99.90;;;;;;5009686;28;20045;-67
2022/10/03 09:59:07;;;;;;;12.32;1.98;;;15.40;99.90;;;;;;5025622;28;20580;-67
2022/10/03 10:02:03;;;;;;;10.18;1.30;;;15.40;99.90;;;;;;5021911;28;20106;-66
2022/10/03 10:04:41;;;;;;;7.03;1.38;;;15.40;99.90;;;;;;5027548;28;20108;-67
2022/10/03 10:07:45;;;;;;;6.63;1.30;;;15.50;99.90;;;;;;5029438;28;20037;-67
2022/10/03 10:10:51;;;;;;;10.73;1.80;;;15.50;99.90;;;;;;4984726;28;20401;-66
2022/10/03 10:13:39;;;;;;;9.50;1.70;;;15.60;99.90;;;;;;5026620;28;20057;-66
2022/10/03 10:16:20;;;;;;;9.93;1.75;;;15.70;99.90;;;;;;5013011;28;20711;-67
2022/10/03 10:19:04;;;;;;;7.13;1.50;;;15.80;99.90;;;;;;5028799;28;20072;-67
2022/10/03 10:21:33;;;;;;;6.75;1.30;;;15.80;99.90;;;;;;5029281;28;20404;-67
2022/10/03 10:24:28;;;;;;;9.68;1.42;;;15.90;99.90;;;;;;5030604;28;20041;-67
2022/10/03 10:27:12;;;;;;;8.52;1.95;;;15.90;99.90;;;;;;5017596;28;20030;-66
2022/10/03 10:30:01;;;;;;;9.85;2.08;;;15.90;99.90;;;;;;5029465;28;20037;-66
2022/10/03 10:32:45;;;;;;;8.52;2.20;;;16.00;99.90;;;;;;4980883;28;20050;-67
2022/10/03 10:35:16;;;;;;;7.15;1.33;;;16.10;99.90;;;;;;5019294;28;20381;-67
2022/10/03 10:37:42;;;;;;;;;;;16.10;99.90;;;;;;5025350;28;20060;-66
2022/10/03 10:40:36;;;;;;;6.20;1.40;;;16.20;99.90;;;;;;5028062;28;20383;-67
2022/10/03 10:43:21;;;;;;;12.95;2.03;;;16.20;99.90;;;;;;5016516;28;20038;-66
2022/10/03 10:45:52;;;;;;;7.88;1.42;;;16.20;99.90;;;;;;5006932;28;20049;-66
2022/10/03 10:48:18;;;;;;;;;;;16.30;99.90;;;;;;5028303;28;20112;-67
2022/10/03 10:50:52;;;;;;;4.75;1.27;;;16.40;99.90;;;;;;5028132;28;20335;-66
2022/10/03 10:53:39;;;;;;;8.77;1.30;;;16.50;99.90;;;;;;5007342;28;20487;-65
2022/10/03 10:57:02;;;;;;;5.43;1.35;;;16.40;99.90;;;;;;5026296;28;20049;-66
2022/10/03 11:00:08;;;;;;;8.23;1.83;;;16.50;99.90;;;;;;4926325;29;20092;-66
2022/10/03 11:03:11;;;;;;;6.13;1.20;;;16.50;99.90;;;;;;4928839;29;20054;-67
2022/10/03 11:06:16;;;;;;;6.30;1.55;;;16.60;99.90;;;;;;5027875;28;20053;-65
2022/10/03 11:09:19;;;;;;;6.40;1.40;;;16.70;99.90;;;;;;5023265;28;20499;-67
2022/10/03 11:12:00;;;;;;;9.63;1.70;;;16.80;99.90;;;;;;5027519;28;20048;-66
2022/10/03 11:14:48;;;;;;;6.65;1.50;;;17.00;99.90;;;;;;5013379;28;20121;-67
2022/10/03 11:17:19;;;;;;;4.65;1.30;;;17.00;99.90;;;;;;5026179;28;20041;-65
2022/10/03 11:20:12;;;;;;;8.40;1.40;;;17.10;99.90;;;;;;5014011;28;20110;-65
2022/10/03 11:23:16;;;;;;;8.10;1.40;;;17.10;99.90;;;;;;5013291;28;20397;-67
2022/10/03 11:26:00;;;;;;;6.53;1.40;;;17.10;99.90;;;;;;5024883;28;20255;-66
2022/10/03 11:28:48;;;;;;;10.02;1.45;;;16.90;99.90;;;;;;5031489;28;20041;-66
2022/10/03 11:31:32;;;;;;;5.38;1.42;;;16.80;99.90;;;;;;5032101;28;20068;-67
2022/10/03 11:34:26;;;;;;;5.63;1.30;;;16.90;99.90;;;;;;5028022;28;20087;-65
2022/10/03 11:37:07;;;;;;;4.43;1.20;;;17.10;99.90;;;;;;5026711;28;20041;-67
2022/10/03 11:39:39;;;;;;;9.50;1.50;;;17.10;99.90;;;;;;5033360;28;20512;-66
2022/10/03 11:42:27;;;;;;;10.15;1.50;;;17.10;99.90;;;;;;5024966;28;20038;-66
2022/10/03 11:44:55;;;;;;;5.40;1.08;;;17.10;99.90;;;;;;5026195;28;20049;-66
2022/10/03 11:47:48;;;;;;;7.55;1.30;;;17.10;99.90;;;;;;5033178;28;20084;-67
2022/10/03 11:50:28;;;;;;;7.82;1.23;;;17.10;99.90;;;;;;5008453;28;20128;-64
2022/10/03 11:53:07;;;;;;;6.07;1.30;;;17.00;99.90;;;;;;5021469;28;20112;-66
2022/10/03 11:55:41;;;;;;;10.70;1.52;;;17.10;99.90;;;;;;5026897;28;20045;-67
2022/10/03 11:58:17;;;;;;;6.60;1.77;;;17.10;99.90;;;;;;5017223;28;20038;-67
2022/10/03 12:00:51;;;;;;;6.32;1.45;;;17.20;99.90;;;;;;5007663;28;20168;-67
2022/10/03 12:03:25;;;;;;;8.05;1.45;;;17.20;99.90;;;;;;5017392;28;20568;-67
2022/10/03 12:08:58;;;;;;;9.50;1.60;;;17.30;99.90;;;;;;5023590;28;20041;-65
2022/10/03 12:12:07;;;;;;;5.90;1.48;;;17.60;99.90;;;;;;5014308;28;20064;-64
2022/10/03 12:14:41;;;;;;;6.53;1.40;;;17.70;99.90;;;;;;5003616;28;20061;-65
2022/10/03 12:17:26;;;;;;;7.07;1.75;;;17.70;99.90;;;;;;5023414;28;20720;-65
2022/10/03 12:20:03;;;;;;;5.28;1.20;;;17.70;99.90;;;;;;5025042;28;20041;-65
2022/10/03 12:22:42;;;;;;;11.23;1.20;;;17.70;99.90;;;;;;5028664;28;20033;-64
2022/10/03 12:25:29;;;;;;;7.53;1.60;;;17.80;99.90;;;;;;5027971;28;20048;-65
2022/10/03 12:28:30;;;;;;;5.97;1.30;;;17.80;99.90;;;;;;5031534;28;20080;-65
2022/10/03 12:30:59;;;;;;;6.20;1.20;;;17.80;99.90;;;;;;5028752;28;20636;-65
2022/10/03 12:33:38;;;;;;;5.50;1.40;;;17.80;99.90;;;;;;5020887;28;20586;-65
2022/10/03 12:36:18;;;;;;;10.00;1.90;;;17.80;99.90;;;;;;5000930;28;23808;-68
2022/10/03 12:39:13;;;;;;;4.32;1.40;;;17.90;99.90;;;;;;4995932;28;20037;-67
2022/10/03 12:41:47;;;;;;;6.75;1.42;;;18.00;99.90;;;;;;5026444;28;20041;-65
2022/10/03 12:44:13;;;;;;;8.02;1.50;;;18.20;99.90;;;;;;5026537;28;20088;-65
2022/10/03 12:47:10;;;;;;;7.90;1.60;;;18.20;99.90;;;;;;5023072;28;20037;-65
2022/10/03 12:49:54;;;;;;;4.55;1.30;;;18.10;99.90;;;;;;5030477;28;20118;-66
2022/10/03 12:52:30;;;;;;;6.85;1.50;;;18.20;99.90;;;;;;5024596;28;20073;-65
2022/10/03 12:55:07;;;;;;;6.45;1.30;;;18.20;99.90;;;;;;5012749;28;20049;-65
2022/10/03 12:57:45;;;;;;;6.63;1.40;;;18.20;99.90;;;;;;5015494;28;20045;-65
2022/10/03 13:00:40;;;;;;;9.15;1.50;;;18.20;99.90;;;;;;5027497;28;20175;-65
2022/10/03 13:03:24;;;;;;;7.35;1.75;;;18.10;99.90;;;;;;5030433;28;20072;-66
2022/10/03 13:06:09;;;;;;;5.18;1.70;;;17.90;99.90;;;;;;5021444;28;20040;-66
2022/10/03 13:08:43;;;;;;;4.38;1.40;;;17.90;99.90;;;;;;5029593;28;20500;-65
2022/10/03 13:11:34;;;;;;;8.13;1.52;;;17.70;99.90;;;;;;5007452;28;20495;-67
2022/10/03 13:14:40;;;;;;;7.55;1.27;;;17.60;99.90;;;;;;5016074;28;20539;-65
2022/10/03 13:17:20;;;;;;;5.55;1.45;;;17.60;99.90;;;;;;5015112;28;20088;-65
2022/10/03 13:19:57;;;;;;;7.18;1.58;;;17.60;99.90;;;;;;5017510;28;20041;-66
2022/10/03 13:22:34;;;;;;;5.05;1.40;;;17.70;99.90;;;;;;5017211;28;20047;-65
2022/10/03 13:25:18;;;;;;;8.25;1.30;;;17.70;99.90;;;;;;5028684;28;20439;-65
2022/10/03 13:28:19;;;;;;;6.90;1.55;;;17.80;99.90;;;;;;5029305;28;20045;-65
2022/10/03 13:31:00;;;;;;;7.05;1.35;;;17.90;99.90;;;;;;5019519;28;20404;-66
2022/10/03 13:33:31;;;;;;;5.45;1.17;;;18.00;99.90;;;;;;4993394;28;20079;-65
2022/10/03 13:36:29;;;;;;;4.20;1.20;;;18.00;99.90;;;;;;5018964;28;20053;-66
2022/10/03 13:39:04;;;;;;;6.78;1.45;;;18.00;99.90;;;;;;5009782;28;20120;-66
2022/10/03 13:41:59;;;;;;;5.38;1.50;;;18.00;99.90;;;;;;5010138;28;20496;-65
2022/10/03 13:44:34;;;;;;;5.55;1.23;;;18.00;99.90;;;;;;5023648;28;20381;-66
2022/10/03 13:47:18;;;;;;;6.88;1.63;;;18.00;99.90;;;;;;5017914;28;20558;-65
2022/10/03 13:49:53;;;;;;;6.43;1.20;;;18.00;99.90;;;;;;5019952;28;20116;-65
2022/10/03 13:52:27;;;;;;;4.53;1.35;;;18.00;99.90;;;;;;5022790;28;20091;-65
2022/10/03 13:55:26;;;;;;;5.97;1.30;;;18.00;99.90;;;;;;5030439;28;20034;-65
2022/10/03 13:58:10;;;;;;;6.18;1.40;;;18.00;99.90;;;;;;5024778;28;20045;-65
2022/10/03 14:00:46;;;;;;;5.35;1.50;;;18.00;99.90;;;;;;5030209;28;20037;-65
2022/10/03 14:03:19;;;;;;;10.50;1.63;;;17.90;99.90;;;;;;5022342;28;20046;-65
2022/10/03 14:05:48;;;;;;;6.50;1.27;;;17.90;99.90;;;;;;5023780;28;20041;-65
2022/10/03 14:08:44;;;;;;;7.97;1.60;;;18.00;99.90;;;;;;5030391;28;20037;-65
2022/10/03 14:11:39;;;;;;;6.28;1.50;;;18.00;99.90;;;;;;5025976;28;20083;-65
2022/10/03 14:14:33;;;;;;;9.43;2.42;;;17.90;99.90;;;;;;5029316;28;20064;-65
2022/10/03 14:17:10;;;;;;;6.65;1.55;;;18.00;99.90;;;;;;5030248;28;20041;-65
2022/10/03 14:19:42;;;;;;;4.15;1.20;;;18.00;99.90;;;;;;5027031;28;20037;-65
2022/10/03 14:22:18;;;;;;;6.10;1.50;;;18.00;99.90;;;;;;5025985;28;20037;-65
2022/10/03 14:24:50;;;;;;;4.63;1.33;;;18.10;99.90;;;;;;5030169;28;20038;-65
2022/10/03 14:27:31;;;;;;;5.47;1.40;;;18.00;99.90;;;;;;5030366;28;20036;-67
2022/10/03 14:30:15;;;;;;;6.45;1.42;;;18.00;99.90;;;;;;5019815;28;20045;-65
2022/10/03 14:32:53;;;;;;;6.15;1.30;;;18.00;99.90;;;;;;5004374;28;20044;-67
2022/10/03 14:35:41;;;;;;;8.65;1.77;;;17.90;99.90;;;;;;5022365;28;20050;-63